sensor_id;sensor_type;location;lat;lon;timestamp;pressure;altitude;pressure_sealevel;temperature
74043;BMP280;62384;53.600;10.040;2022-11-11T00:03:31;102368.34;;;13.05
74043;BMP280;62384;53.600;10.040;2022-11-11T00:06:02;102363.88;;;13.09
74043;BMP280;62384;53.600;10.040;2022-11-11T00:08:27;102373.88;;;13.09
74043;BMP280;62384;53.600;10.040;2022-11-11T00:10:52;102373.66;;;13.14
74043;BMP280;62384;53.600;10.040;2022-11-11T00:13:17;102367.94;;;13.15
74043;BMP280;62384;53.600;10.040;2022-11-11T00:15:43;102356.31;;;13.03
74043;BMP280;62384;53.600;10.040;2022-11-11T00:18:10;102352.44;;;13.12
74043;BMP280;62384;53.600;10.040;2022-11-11T00:20:57;102345.84;;;13.01
74043;BMP280;62384;53.600;10.040;2022-11-11T00:23:51;102342.03;;;13.02
74043;BMP280;62384;53.600;10.040;2022-11-11T00:26:35;102349.03;;;13.03
74043;BMP280;62384;53.600;10.040;2022-11-11T00:29:00;102360.84;;;13.11
74043;BMP280;62384;53.600;10.040;2022-11-11T00:31:25;102360.97;;;13.14
74043;BMP280;62384;53.600;10.040;2022-11-11T00:33:52;102364.59;;;13.18
74043;BMP280;62384;53.600;10.040;2022-11-11T00:36:18;102349.06;;;13.15
74043;BMP280;62384;53.600;10.040;2022-11-11T00:38:43;102350.69;;;13.08
74043;BMP280;62384;53.600;10.040;2022-11-11T00:41:17;102351.31;;;13.13
74043;BMP280;62384;53.600;10.040;2022-11-11T00:43:44;102346.06;;;13.17
74043;BMP280;62384;53.600;10.040;2022-11-11T00:46:11;102339.72;;;13.13
74043;BMP280;62384;53.600;10.040;2022-11-11T00:48:55;102340.31;;;13.18
74043;BMP280;62384;53.600;10.040;2022-11-11T00:51:39;102339.97;;;13.20
74043;BMP280;62384;53.600;10.040;2022-11-11T00:54:05;102334.53;;;13.08
74043;BMP280;62384;53.600;10.040;2022-11-11T00:56:31;102355.56;;;13.14
74043;BMP280;62384;53.600;10.040;2022-11-11T00:58:56;102351.91;;;13.19
74043;BMP280;62384;53.600;10.040;2022-11-11T01:01:21;102341.28;;;13.14
74043;BMP280;62384;53.600;10.040;2022-11-11T01:03:46;102355.38;;;13.19
74043;BMP280;62384;53.600;10.040;2022-11-11T01:06:12;102357.88;;;13.24
74043;BMP280;62384;53.600;10.040;2022-11-11T01:08:38;102350.25;;;13.26
74043;BMP280;62384;53.600;10.040;2022-11-11T01:11:15;102348.34;;;13.27
74043;BMP280;62384;53.600;10.040;2022-11-11T01:13:41;102354.31;;;13.32
74043;BMP280;62384;53.600;10.040;2022-11-11T01:16:12;102354.19;;;13.29
74043;BMP280;62384;53.600;10.040;2022-11-11T01:18:40;102365.25;;;13.36
74043;BMP280;62384;53.600;10.040;2022-11-11T01:21:18;102376.94;;;13.40
74043;BMP280;62384;53.600;10.040;2022-11-11T01:23:44;102383.09;;;13.40
74043;BMP280;62384;53.600;10.040;2022-11-11T01:26:20;102378.66;;;13.44
74043;BMP280;62384;53.600;10.040;2022-11-11T01:28:50;102377.72;;;13.40
74043;BMP280;62384;53.600;10.040;2022-11-11T01:31:17;102374.69;;;13.42
74043;BMP280;62384;53.600;10.040;2022-11-11T01:33:43;102365.22;;;13.68
74043;BMP280;62384;53.600;10.040;2022-11-11T01:36:14;102355.41;;;13.64
74043;BMP280;62384;53.600;10.040;2022-11-11T01:38:40;102370.63;;;13.81
74043;BMP280;62384;53.600;10.040;2022-11-11T01:41:14;102364.13;;;13.82
74043;BMP280;62384;53.600;10.040;2022-11-11T01:44:00;102375.03;;;13.85
74043;BMP280;62384;53.600;10.040;2022-11-11T01:46:35;102366.84;;;13.82
74043;BMP280;62384;53.600;10.040;2022-11-11T01:52:21;102372.78;;;13.75
74043;BMP280;62384;53.600;10.040;2022-11-11T01:57:31;102353.66;;;13.80
74043;BMP280;62384;53.600;10.040;2022-11-11T02:00:02;102351.97;;;13.76
74043;BMP280;62384;53.600;10.040;2022-11-11T02:05:14;102353.75;;;13.84
74043;BMP280;62384;53.600;10.040;2022-11-11T02:08:02;102356.44;;;13.84
74043;BMP280;62384;53.600;10.040;2022-11-11T02:10:31;102349.94;;;13.85
74043;BMP280;62384;53.600;10.040;2022-11-11T02:12:57;102336.19;;;13.65
74043;BMP280;62384;53.600;10.040;2022-11-11T02:15:41;102338.09;;;13.77
74043;BMP280;62384;53.600;10.040;2022-11-11T02:18:07;102332.84;;;13.68
74043;BMP280;62384;53.600;10.040;2022-11-11T02:20:38;102329.75;;;13.70
74043;BMP280;62384;53.600;10.040;2022-11-11T02:25:55;102327.06;;;13.70
74043;BMP280;62384;53.600;10.040;2022-11-11T02:28:24;102334.44;;;13.69
74043;BMP280;62384;53.600;10.040;2022-11-11T02:30:51;102319.06;;;13.49
74043;BMP280;62384;53.600;10.040;2022-11-11T02:33:16;102326.63;;;13.56
74043;BMP280;62384;53.600;10.040;2022-11-11T02:35:48;102325.53;;;13.69
74043;BMP280;62384;53.600;10.040;2022-11-11T02:38:22;102329.34;;;13.23
74043;BMP280;62384;53.600;10.040;2022-11-11T02:40:50;102307.00;;;13.14
74043;BMP280;62384;53.600;10.040;2022-11-11T02:43:34;102298.50;;;13.12
74043;BMP280;62384;53.600;10.040;2022-11-11T02:46:01;102308.16;;;13.13
74043;BMP280;62384;53.600;10.040;2022-11-11T02:48:27;102312.19;;;13.40
74043;BMP280;62384;53.600;10.040;2022-11-11T02:50:52;102260.13;;;12.74
74043;BMP280;62384;53.600;10.040;2022-11-11T02:53:18;102315.75;;;12.99
74043;BMP280;62384;53.600;10.040;2022-11-11T02:55:43;102317.72;;;12.90
74043;BMP280;62384;53.600;10.040;2022-11-11T02:58:18;102328.88;;;13.01
74043;BMP280;62384;53.600;10.040;2022-11-11T03:00:43;102333.09;;;12.89
74043;BMP280;62384;53.600;10.040;2022-11-11T03:03:09;102342.78;;;12.90
74043;BMP280;62384;53.600;10.040;2022-11-11T03:05:34;102356.00;;;12.83
74043;BMP280;62384;53.600;10.040;2022-11-11T03:08:00;102352.91;;;12.93
74043;BMP280;62384;53.600;10.040;2022-11-11T03:10:25;102355.38;;;12.78
74043;BMP280;62384;53.600;10.040;2022-11-11T03:12:52;102343.16;;;12.80
74043;BMP280;62384;53.600;10.040;2022-11-11T03:15:17;102355.22;;;12.74
74043;BMP280;62384;53.600;10.040;2022-11-11T03:17:43;102352.50;;;12.83
74043;BMP280;62384;53.600;10.040;2022-11-11T03:20:10;102352.38;;;12.79
74043;BMP280;62384;53.600;10.040;2022-11-11T03:23:02;102345.66;;;12.85
74043;BMP280;62384;53.600;10.040;2022-11-11T03:25:28;102341.84;;;12.86
74043;BMP280;62384;53.600;10.040;2022-11-11T03:30:31;102344.81;;;12.73
74043;BMP280;62384;53.600;10.040;2022-11-11T03:33:00;102339.28;;;12.69
74043;BMP280;62384;53.600;10.040;2022-11-11T03:35:26;102356.81;;;12.75
74043;BMP280;62384;53.600;10.040;2022-11-11T03:37:53;102349.13;;;12.65
74043;BMP280;62384;53.600;10.040;2022-11-11T03:40:37;102351.03;;;12.65
74043;BMP280;62384;53.600;10.040;2022-11-11T03:43:02;102350.44;;;12.59
74043;BMP280;62384;53.600;10.040;2022-11-11T03:45:27;102348.84;;;12.58
74043;BMP280;62384;53.600;10.040;2022-11-11T03:47:53;102350.50;;;12.51
74043;BMP280;62384;53.600;10.040;2022-11-11T03:50:20;102349.22;;;12.48
74043;BMP280;62384;53.600;10.040;2022-11-11T03:52:45;102351.97;;;12.40
74043;BMP280;62384;53.600;10.040;2022-11-11T03:55:11;102361.38;;;12.54
74043;BMP280;62384;53.600;10.040;2022-11-11T03:57:45;102364.50;;;12.65
74043;BMP280;62384;53.600;10.040;2022-11-11T04:00:12;102367.91;;;12.53
74043;BMP280;62384;53.600;10.040;2022-11-11T04:02:39;102374.25;;;12.57
74043;BMP280;62384;53.600;10.040;2022-11-11T04:05:23;102366.69;;;12.51
74043;BMP280;62384;53.600;10.040;2022-11-11T04:08:12;102369.69;;;12.49
74043;BMP280;62384;53.600;10.040;2022-11-11T04:11:02;102372.06;;;12.51
74043;BMP280;62384;53.600;10.040;2022-11-11T04:13:29;102371.16;;;12.67
74043;BMP280;62384;53.600;10.040;2022-11-11T04:16:13;102357.28;;;12.28
74043;BMP280;62384;53.600;10.040;2022-11-11T04:18:39;102357.44;;;12.23
74043;BMP280;62384;53.600;10.040;2022-11-11T04:21:23;102345.56;;;12.24
74043;BMP280;62384;53.600;10.040;2022-11-11T04:24:12;102351.09;;;12.27
74043;BMP280;62384;53.600;10.040;2022-11-11T04:26:59;102377.06;;;12.32
74043;BMP280;62384;53.600;10.040;2022-11-11T04:29:24;102359.97;;;12.28
74043;BMP280;62384;53.600;10.040;2022-11-11T04:31:59;102347.00;;;12.21
74043;BMP280;62384;53.600;10.040;2022-11-11T04:34:46;102371.34;;;12.33
74043;BMP280;62384;53.600;10.040;2022-11-11T04:37:12;102369.75;;;12.32
74043;BMP280;62384;53.600;10.040;2022-11-11T04:39:37;102380.53;;;12.32
74043;BMP280;62384;53.600;10.040;2022-11-11T04:42:22;102378.19;;;12.31
74043;BMP280;62384;53.600;10.040;2022-11-11T04:44:47;102365.66;;;12.26
74043;BMP280;62384;53.600;10.040;2022-11-11T04:47:31;102368.34;;;12.26
74043;BMP280;62384;53.600;10.040;2022-11-11T04:49:57;102374.69;;;12.21
74043;BMP280;62384;53.600;10.040;2022-11-11T04:52:22;102374.69;;;12.21
74043;BMP280;62384;53.600;10.040;2022-11-11T04:54:50;102375.69;;;12.17
74043;BMP280;62384;53.600;10.040;2022-11-11T04:57:38;102371.41;;;12.16
74043;BMP280;62384;53.600;10.040;2022-11-11T05:00:04;102368.41;;;12.17
74043;BMP280;62384;53.600;10.040;2022-11-11T05:02:29;102359.84;;;12.15
74043;BMP280;62384;53.600;10.040;2022-11-11T05:05:13;102368.25;;;12.14
74043;BMP280;62384;53.600;10.040;2022-11-11T05:07:38;102359.56;;;12.08
74043;BMP280;62384;53.600;10.040;2022-11-11T05:10:23;102354.00;;;12.05
74043;BMP280;62384;53.600;10.040;2022-11-11T05:12:49;102364.97;;;12.00
74043;BMP280;62384;53.600;10.040;2022-11-11T05:15:14;102358.78;;;11.99
74043;BMP280;62384;53.600;10.040;2022-11-11T05:17:58;102357.69;;;11.92
74043;BMP280;62384;53.600;10.040;2022-11-11T05:20:47;102348.34;;;11.98
74043;BMP280;62384;53.600;10.040;2022-11-11T05:23:31;102340.09;;;12.03
74043;BMP280;62384;53.600;10.040;2022-11-11T05:26:15;102338.22;;;12.03
74043;BMP280;62384;53.600;10.040;2022-11-11T05:28:40;102352.47;;;12.04
74043;BMP280;62384;53.600;10.040;2022-11-11T05:31:05;102344.88;;;11.97
74043;BMP280;62384;53.600;10.040;2022-11-11T05:33:30;102351.81;;;11.98
74043;BMP280;62384;53.600;10.040;2022-11-11T05:35:56;102357.19;;;11.98
74043;BMP280;62384;53.600;10.040;2022-11-11T05:38:21;102362.44;;;11.95
74043;BMP280;62384;53.600;10.040;2022-11-11T05:40:46;102355.16;;;11.95
74043;BMP280;62384;53.600;10.040;2022-11-11T05:43:12;102359.00;;;11.94
74043;BMP280;62384;53.600;10.040;2022-11-11T05:45:40;102367.03;;;12.03
74043;BMP280;62384;53.600;10.040;2022-11-11T05:48:06;102363.38;;;11.99
74043;BMP280;62384;53.600;10.040;2022-11-11T05:50:31;102371.78;;;11.97
74043;BMP280;62384;53.600;10.040;2022-11-11T05:53:00;102373.34;;;12.07
74043;BMP280;62384;53.600;10.040;2022-11-11T05:55:25;102367.84;;;11.95
74043;BMP280;62384;53.600;10.040;2022-11-11T05:57:50;102362.66;;;11.90
74043;BMP280;62384;53.600;10.040;2022-11-11T06:00:16;102357.59;;;11.80
74043;BMP280;62384;53.600;10.040;2022-11-11T06:02:41;102360.75;;;11.82
74043;BMP280;62384;53.600;10.040;2022-11-11T06:05:07;102362.78;;;11.85
74043;BMP280;62384;53.600;10.040;2022-11-11T06:07:32;102369.47;;;11.87
74043;BMP280;62384;53.600;10.040;2022-11-11T06:09:58;102378.28;;;11.96
74043;BMP280;62384;53.600;10.040;2022-11-11T06:12:43;102378.31;;;11.79
74043;BMP280;62384;53.600;10.040;2022-11-11T06:15:29;102379.56;;;11.90
74043;BMP280;62384;53.600;10.040;2022-11-11T06:17:55;102381.47;;;11.90
74043;BMP280;62384;53.600;10.040;2022-11-11T06:20:20;102382.25;;;11.90
74043;BMP280;62384;53.600;10.040;2022-11-11T06:22:45;102388.44;;;11.91
74043;BMP280;62384;53.600;10.040;2022-11-11T06:25:27;102394.16;;;11.89
74043;BMP280;62384;53.600;10.040;2022-11-11T06:28:12;102377.69;;;11.82
74043;BMP280;62384;53.600;10.040;2022-11-11T06:30:38;102383.22;;;11.86
74043;BMP280;62384;53.600;10.040;2022-11-11T06:33:04;102385.59;;;11.87
74043;BMP280;62384;53.600;10.040;2022-11-11T06:35:35;102393.03;;;11.82
74043;BMP280;62384;53.600;10.040;2022-11-11T06:38:01;102391.28;;;11.94
74043;BMP280;62384;53.600;10.040;2022-11-11T06:40:27;102402.22;;;11.89
74043;BMP280;62384;53.600;10.040;2022-11-11T06:42:52;102402.22;;;11.89
74043;BMP280;62384;53.600;10.040;2022-11-11T06:45:18;102399.69;;;11.84
74043;BMP280;62384;53.600;10.040;2022-11-11T06:47:43;102404.94;;;11.81
74043;BMP280;62384;53.600;10.040;2022-11-11T06:50:09;102390.69;;;11.80
74043;BMP280;62384;53.600;10.040;2022-11-11T06:52:34;102398.88;;;11.92
74043;BMP280;62384;53.600;10.040;2022-11-11T06:54:59;102392.75;;;11.66
74043;BMP280;62384;53.600;10.040;2022-11-11T06:57:24;102417.28;;;11.73
74043;BMP280;62384;53.600;10.040;2022-11-11T06:59:50;102413.81;;;11.73
74043;BMP280;62384;53.600;10.040;2022-11-11T07:02:15;102426.00;;;11.70
74043;BMP280;62384;53.600;10.040;2022-11-11T07:04:42;102401.16;;;11.65
74043;BMP280;62384;53.600;10.040;2022-11-11T07:07:10;102408.91;;;11.66
74043;BMP280;62384;53.600;10.040;2022-11-11T07:09:35;102403.72;;;11.61
74043;BMP280;62384;53.600;10.040;2022-11-11T07:12:01;102402.25;;;11.64
74043;BMP280;62384;53.600;10.040;2022-11-11T07:14:26;102403.34;;;11.63
74043;BMP280;62384;53.600;10.040;2022-11-11T07:16:52;102413.00;;;11.72
74043;BMP280;62384;53.600;10.040;2022-11-11T07:19:17;102411.91;;;11.73
74043;BMP280;62384;53.600;10.040;2022-11-11T07:21:42;102408.91;;;11.66
74043;BMP280;62384;53.600;10.040;2022-11-11T07:24:08;102410.00;;;11.65
74043;BMP280;62384;53.600;10.040;2022-11-11T07:26:33;102417.13;;;11.70
74043;BMP280;62384;53.600;10.040;2022-11-11T07:28:58;102419.19;;;11.64
74043;BMP280;62384;53.600;10.040;2022-11-11T07:31:23;102397.81;;;11.59
74043;BMP280;62384;53.600;10.040;2022-11-11T07:33:49;102410.00;;;11.65
74043;BMP280;62384;53.600;10.040;2022-11-11T07:36:14;102424.38;;;11.69
74043;BMP280;62384;53.600;10.040;2022-11-11T07:38:39;102419.00;;;11.69
74043;BMP280;62384;53.600;10.040;2022-11-11T07:41:04;102419.19;;;11.64
74043;BMP280;62384;53.600;10.040;2022-11-11T07:43:30;102412.22;;;11.63
74043;BMP280;62384;53.600;10.040;2022-11-11T07:45:55;102409.09;;;11.61
74043;BMP280;62384;53.600;10.040;2022-11-11T07:48:21;102416.81;;;11.63
74043;BMP280;62384;53.600;10.040;2022-11-11T07:50:46;102415.53;;;11.69
74043;BMP280;62384;53.600;10.040;2022-11-11T07:53:11;102417.31;;;11.65
74043;BMP280;62384;53.600;10.040;2022-11-11T07:55:36;102418.09;;;11.74
74043;BMP280;62384;53.600;10.040;2022-11-11T07:58:02;102416.81;;;11.71
74043;BMP280;62384;53.600;10.040;2022-11-11T08:00:33;102417.00;;;11.75
74043;BMP280;62384;53.600;10.040;2022-11-11T08:02:58;102420.78;;;11.74
74043;BMP280;62384;53.600;10.040;2022-11-11T08:05:23;102421.88;;;11.73
74043;BMP280;62384;53.600;10.040;2022-11-11T08:07:49;102417.47;;;11.68
74043;BMP280;62384;53.600;10.040;2022-11-11T08:10:15;102411.13;;;11.64
74043;BMP280;62384;53.600;10.040;2022-11-11T08:12:40;102412.09;;;11.68
74043;BMP280;62384;53.600;10.040;2022-11-11T08:15:24;102414.09;;;11.63
74043;BMP280;62384;53.600;10.040;2022-11-11T08:17:49;102411.13;;;11.64
74043;BMP280;62384;53.600;10.040;2022-11-11T08:20:15;102405.91;;;11.59
74043;BMP280;62384;53.600;10.040;2022-11-11T08:22:41;102389.13;;;11.54
74043;BMP280;62384;53.600;10.040;2022-11-11T08:25:09;102403.22;;;11.59
74043;BMP280;62384;53.600;10.040;2022-11-11T08:27:35;102400.34;;;11.64
74043;BMP280;62384;53.600;10.040;2022-11-11T08:30:01;102407.16;;;11.70
74043;BMP280;62384;53.600;10.040;2022-11-11T08:32:28;102397.66;;;11.56
74043;BMP280;62384;53.600;10.040;2022-11-11T08:34:54;102410.31;;;11.64
74043;BMP280;62384;53.600;10.040;2022-11-11T08:37:19;102423.97;;;11.67
74043;BMP280;62384;53.600;10.040;2022-11-11T08:39:44;102428.69;;;11.70
74043;BMP280;62384;53.600;10.040;2022-11-11T08:42:09;102419.50;;;11.63
74043;BMP280;62384;53.600;10.040;2022-11-11T08:44:35;102418.56;;;11.67
74043;BMP280;62384;53.600;10.040;2022-11-11T08:47:00;102425.53;;;11.68
74043;BMP280;62384;53.600;10.040;2022-11-11T08:49:25;102423.97;;;11.67
74043;BMP280;62384;53.600;10.040;2022-11-11T08:51:51;102445.31;;;11.81
74043;BMP280;62384;53.600;10.040;2022-11-11T08:54:16;102435.19;;;11.78
74043;BMP280;62384;53.600;10.040;2022-11-11T08:56:41;102435.00;;;11.83
74043;BMP280;62384;53.600;10.040;2022-11-11T08:59:08;102437.22;;;11.89
74043;BMP280;62384;53.600;10.040;2022-11-11T09:01:34;102442.13;;;11.87
74043;BMP280;62384;53.600;10.040;2022-11-11T09:03:59;102438.31;;;11.88
74043;BMP280;62384;53.600;10.040;2022-11-11T09:06:25;102446.84;;;11.90
74043;BMP280;62384;53.600;10.040;2022-11-11T09:08:50;102444.97;;;11.82
74043;BMP280;62384;53.600;10.040;2022-11-11T09:11:15;102451.63;;;11.93
74043;BMP280;62384;53.600;10.040;2022-11-11T09:13:41;102456.22;;;11.93
74043;BMP280;62384;53.600;10.040;2022-11-11T09:16:07;102456.53;;;11.91
74043;BMP280;62384;53.600;10.040;2022-11-11T09:18:34;102460.16;;;11.95
74043;BMP280;62384;53.600;10.040;2022-11-11T09:20:59;102471.72;;;12.04
74043;BMP280;62384;53.600;10.040;2022-11-11T09:23:25;102468.56;;;12.02
74043;BMP280;62384;53.600;10.040;2022-11-11T09:25:50;102456.06;;;11.89
74043;BMP280;62384;53.600;10.040;2022-11-11T09:28:15;102420.94;;;11.60
74043;BMP280;62384;53.600;10.040;2022-11-11T09:30:41;102463.81;;;11.91
74043;BMP280;62384;53.600;10.040;2022-11-11T09:33:06;102462.84;;;11.95
74043;BMP280;62384;53.600;10.040;2022-11-11T09:35:31;102461.59;;;11.93
74043;BMP280;62384;53.600;10.040;2022-11-11T09:37:58;102466.97;;;11.93
74043;BMP280;62384;53.600;10.040;2022-11-11T09:40:26;102462.69;;;11.92
74043;BMP280;62384;53.600;10.040;2022-11-11T09:50:53;102484.53;;;12.07
74043;BMP280;62384;53.600;10.040;2022-11-11T09:53:32;102478.06;;;12.00
74043;BMP280;62384;53.600;10.040;2022-11-11T09:56:05;102475.97;;;12.05
74043;BMP280;62384;53.600;10.040;2022-11-11T09:58:36;102474.56;;;11.99
74043;BMP280;62384;53.600;10.040;2022-11-11T10:01:06;102486.25;;;12.12
74043;BMP280;62384;53.600;10.040;2022-11-11T10:03:38;102496.88;;;12.08
74043;BMP280;62384;53.600;10.040;2022-11-11T10:06:15;102504.63;;;12.18
74043;BMP280;62384;53.600;10.040;2022-11-11T10:08:47;102487.53;;;12.06
74043;BMP280;62384;53.600;10.040;2022-11-11T10:11:26;102504.47;;;12.15
74043;BMP280;62384;53.600;10.040;2022-11-11T10:13:54;102507.19;;;12.24
74043;BMP280;62384;53.600;10.040;2022-11-11T10:21:35;102524.75;;;12.30
74043;BMP280;62384;53.600;10.040;2022-11-11T10:24:05;102538.22;;;12.21
74043;BMP280;62384;53.600;10.040;2022-11-11T10:26:43;102546.78;;;12.14
74043;BMP280;62384;53.600;10.040;2022-11-11T10:29:16;102541.69;;;12.21
74043;BMP280;62384;53.600;10.040;2022-11-11T10:31:43;102537.28;;;12.17
74043;BMP280;62384;53.600;10.040;2022-11-11T10:34:17;102567.66;;;12.35
74043;BMP280;62384;53.600;10.040;2022-11-11T10:36:49;102568.94;;;12.37
74043;BMP280;62384;53.600;10.040;2022-11-11T10:39:24;102583.34;;;12.41
74043;BMP280;62384;53.600;10.040;2022-11-11T10:41:51;102568.94;;;12.29
74043;BMP280;62384;53.600;10.040;2022-11-11T10:44:21;102580.34;;;12.43
74043;BMP280;62384;53.600;10.040;2022-11-11T10:49:36;102579.88;;;12.41
74043;BMP280;62384;53.600;10.040;2022-11-11T10:52:26;102588.72;;;12.41
74043;BMP280;62384;53.600;10.040;2022-11-11T10:55:17;102596.22;;;12.44
74043;BMP280;62384;53.600;10.040;2022-11-11T10:57:47;102589.88;;;12.32
74043;BMP280;62384;53.600;10.040;2022-11-11T11:00:15;102589.72;;;12.37
74043;BMP280;62384;53.600;10.040;2022-11-11T11:03:06;102593.50;;;12.44
74043;BMP280;62384;53.600;10.040;2022-11-11T11:05:41;102596.31;;;12.56
74043;BMP280;62384;53.600;10.040;2022-11-11T11:08:15;102604.53;;;12.68
74043;BMP280;62384;53.600;10.040;2022-11-11T11:10:45;102605.03;;;12.70
74043;BMP280;62384;53.600;10.040;2022-11-11T11:13:16;102611.31;;;12.74
74043;BMP280;62384;53.600;10.040;2022-11-11T11:15:46;102619.47;;;12.66
74043;BMP280;62384;53.600;10.040;2022-11-11T11:18:15;102597.78;;;12.45
74043;BMP280;62384;53.600;10.040;2022-11-11T11:21:01;102603.16;;;12.54
74043;BMP280;62384;53.600;10.040;2022-11-11T11:26:02;102603.31;;;12.49
74043;BMP280;62384;53.600;10.040;2022-11-11T11:28:28;102599.34;;;12.38
74043;BMP280;62384;53.600;10.040;2022-11-11T11:31:03;102612.94;;;12.67
74043;BMP280;62384;53.600;10.040;2022-11-11T11:33:56;102613.88;;;12.71
74043;BMP280;62384;53.600;10.040;2022-11-11T11:36:21;102610.59;;;12.65
74043;BMP280;62384;53.600;10.040;2022-11-11T11:38:48;102606.44;;;12.68
74043;BMP280;62384;53.600;10.040;2022-11-11T11:41:34;102624.66;;;12.71
74043;BMP280;62384;53.600;10.040;2022-11-11T11:44:01;102624.97;;;12.78
74043;BMP280;62384;53.600;10.040;2022-11-11T11:46:39;102618.78;;;12.77
74043;BMP280;62384;53.600;10.040;2022-11-11T11:52:19;102613.09;;;12.62
74043;BMP280;62384;53.600;10.040;2022-11-11T11:54:55;102622.66;;;12.59
74043;BMP280;62384;53.600;10.040;2022-11-11T12:00:22;102606.91;;;12.61
74043;BMP280;62384;53.600;10.040;2022-11-11T12:08:21;102616.88;;;12.78
74043;BMP280;62384;53.600;10.040;2022-11-11T12:11:02;102615.16;;;12.65
74043;BMP280;62384;53.600;10.040;2022-11-11T12:13:57;102613.13;;;12.53
74043;BMP280;62384;53.600;10.040;2022-11-11T12:17:01;102615.00;;;12.61
74043;BMP280;62384;53.600;10.040;2022-11-11T12:22:47;102618.34;;;12.67
74043;BMP280;62384;53.600;10.040;2022-11-11T12:28:34;102614.38;;;12.64
74043;BMP280;62384;53.600;10.040;2022-11-11T12:31:27;102611.38;;;12.49
74043;BMP280;62384;53.600;10.040;2022-11-11T12:34:17;102607.59;;;12.50
74043;BMP280;62384;53.600;10.040;2022-11-11T12:37:18;102607.59;;;12.50
74043;BMP280;62384;53.600;10.040;2022-11-11T12:40:15;102621.38;;;12.48
74043;BMP280;62384;53.600;10.040;2022-11-11T12:42:55;102598.88;;;12.36
74043;BMP280;62384;53.600;10.040;2022-11-11T12:45:40;102616.47;;;12.42
74043;BMP280;62384;53.600;10.040;2022-11-11T12:53:39;102610.75;;;12.52
74043;BMP280;62384;53.600;10.040;2022-11-11T12:59:04;102618.50;;;12.53
74043;BMP280;62384;53.600;10.040;2022-11-11T13:04:55;102580.97;;;12.31
74043;BMP280;62384;53.600;10.040;2022-11-11T13:07:37;102619.28;;;12.62
74043;BMP280;62384;53.600;10.040;2022-11-11T13:12:56;102634.84;;;12.65
74043;BMP280;62384;53.600;10.040;2022-11-11T13:15:25;102639.25;;;12.61
74043;BMP280;62384;53.600;10.040;2022-11-11T13:17:51;102649.13;;;12.57
74043;BMP280;62384;53.600;10.040;2022-11-11T13:20:43;102634.69;;;12.53
74043;BMP280;62384;53.600;10.040;2022-11-11T13:23:10;102647.34;;;12.61
74043;BMP280;62384;53.600;10.040;2022-11-11T13:25:40;102646.44;;;12.57
74043;BMP280;62384;53.600;10.040;2022-11-11T13:28:19;102648.97;;;12.54
74043;BMP280;62384;53.600;10.040;2022-11-11T13:36:06;102655.13;;;12.63
74043;BMP280;62384;53.600;10.040;2022-11-11T13:38:37;102655.59;;;12.65
74043;BMP280;62384;53.600;10.040;2022-11-11T13:41:05;102655.25;;;12.75
74043;BMP280;62384;53.600;10.040;2022-11-11T13:43:44;102664.16;;;12.75
74043;BMP280;62384;53.600;10.040;2022-11-11T13:46:40;102669.88;;;12.74
74043;BMP280;62384;53.600;10.040;2022-11-11T13:49:19;102666.38;;;12.73
74043;BMP280;62384;53.600;10.040;2022-11-11T13:51:57;102664.94;;;12.76
74043;BMP280;62384;53.600;10.040;2022-11-11T13:54:35;102668.09;;;12.78
74043;BMP280;62384;53.600;10.040;2022-11-11T13:57:19;102652.44;;;12.63
74043;BMP280;62384;53.600;10.040;2022-11-11T13:59:57;102662.41;;;12.71
74043;BMP280;62384;53.600;10.040;2022-11-11T14:02:28;102663.34;;;12.75
74043;BMP280;62384;53.600;10.040;2022-11-11T14:12:44;102653.69;;;12.74
74043;BMP280;62384;53.600;10.040;2022-11-11T14:17:57;102667.31;;;12.77
74043;BMP280;62384;53.600;10.040;2022-11-11T14:20:42;102665.06;;;12.88
74043;BMP280;62384;53.600;10.040;2022-11-11T14:23:37;102675.25;;;12.82
74043;BMP280;62384;53.600;10.040;2022-11-11T14:36:48;102665.06;;;12.88
74043;BMP280;62384;53.600;10.040;2022-11-11T14:39:38;102670.78;;;12.86
74043;BMP280;62384;53.600;10.040;2022-11-11T14:45:02;102665.06;;;12.88
74043;BMP280;62384;53.600;10.040;2022-11-11T14:47:40;102672.50;;;12.91
74043;BMP280;62384;53.600;10.040;2022-11-11T14:52:58;102665.56;;;12.90
74043;BMP280;62384;53.600;10.040;2022-11-11T14:55:28;102656.53;;;12.86
74043;BMP280;62384;53.600;10.040;2022-11-11T14:58:15;102665.84;;;12.88
74043;BMP280;62384;53.600;10.040;2022-11-11T15:01:07;102662.38;;;12.97
74043;BMP280;62384;53.600;10.040;2022-11-11T15:03:46;102663.00;;;12.93
74043;BMP280;62384;53.600;10.040;2022-11-11T15:06:22;102659.22;;;12.86
74043;BMP280;62384;53.600;10.040;2022-11-11T15:09:02;102649.69;;;12.88
74043;BMP280;62384;53.600;10.040;2022-11-11T15:19:54;102641.16;;;12.78
74043;BMP280;62384;53.600;10.040;2022-11-11T15:24:51;102664.25;;;12.96
74043;BMP280;62384;53.600;10.040;2022-11-11T15:27:35;102669.34;;;12.89
74043;BMP280;62384;53.600;10.040;2022-11-11T15:30:12;102676.00;;;12.91
74043;BMP280;62384;53.600;10.040;2022-11-11T15:37:58;102675.66;;;13.02
74043;BMP280;62384;53.600;10.040;2022-11-11T15:40:29;102660.63;;;12.92
74043;BMP280;62384;53.600;10.040;2022-11-11T15:42:56;102660.00;;;12.86
74043;BMP280;62384;53.600;10.040;2022-11-11T15:45:22;102668.72;;;12.92
74043;BMP280;62384;53.600;10.040;2022-11-11T15:47:49;102669.66;;;12.96
74043;BMP280;62384;53.600;10.040;2022-11-11T15:52:54;102673.31;;;12.91
74043;BMP280;62384;53.600;10.040;2022-11-11T15:55:31;102676.94;;;12.95
74043;BMP280;62384;53.600;10.040;2022-11-11T16:00:41;102672.22;;;12.92
74043;BMP280;62384;53.600;10.040;2022-11-11T16:03:17;102677.25;;;12.94
74043;BMP280;62384;53.600;10.040;2022-11-11T16:05:43;102659.06;;;12.82
74043;BMP280;62384;53.600;10.040;2022-11-11T16:08:16;102677.16;;;12.90